sensor_id;sensor_type;location;lat;lon;timestamp;P1;P2;P0
62591;PMS5003;48659;41.622;2.276;2023-05-07T00:01:13;6;6;
62591;PMS5003;48659;41.622;2.276;2023-05-07T00:03:42;5;5;
62591;PMS5003;48659;41.622;2.276;2023-05-07T00:06:10;7;7;
62591;PMS5003;48659;41.622;2.276;2023-05-07T00:08:42;7;5;
62591;PMS5003;48659;41.622;2.276;2023-05-07T00:11:10;6;6;
62591;PMS5003;48659;41.622;2.276;2023-05-07T00:13:38;8;6;
62591;PMS5003;48659;41.622;2.276;2023-05-07T00:16:06;6;6;
62591;PMS5003;48659;41.622;2.276;2023-05-07T00:18:33;6;6;
62591;PMS5003;48659;41.622;2.276;2023-05-07T00:21:06;6;6;
62591;PMS5003;48659;41.622;2.276;2023-05-07T00:23:33;7;6;
62591;PMS5003;48659;41.622;2.276;2023-05-07T00:26:13;6;6;
62591;PMS5003;48659;41.622;2.276;2023-05-07T00:28:40;9;7;
62591;PMS5003;48659;41.622;2.276;2023-05-07T00:31:08;5;5;
62591;PMS5003;48659;41.622;2.276;2023-05-07T00:33:42;6;6;
62591;PMS5003;48659;41.622;2.276;2023-05-07T00:36:10;9;7;
62591;PMS5003;48659;41.622;2.276;2023-05-07T00:38:38;7;6;
62591;PMS5003;48659;41.622;2.276;2023-05-07T00:41:05;7;6;
62591;PMS5003;48659;41.622;2.276;2023-05-07T00:43:32;9;7;
62591;PMS5003;48659;41.622;2.276;2023-05-07T00:46:00;7;7;
62591;PMS5003;48659;41.622;2.276;2023-05-07T00:48:28;10;9;
62591;PMS5003;48659;41.622;2.276;2023-05-07T00:50:56;8;6;
62591;PMS5003;48659;41.622;2.276;2023-05-07T00:53:24;8;8;
62591;PMS5003;48659;41.622;2.276;2023-05-07T00:55:52;7;7;
62591;PMS5003;48659;41.622;2.276;2023-05-07T00:58:21;11;8;
62591;PMS5003;48659;41.622;2.276;2023-05-07T01:00:48;7;7;
62591;PMS5003;48659;41.622;2.276;2023-05-07T01:03:15;9;9;
62591;PMS5003;48659;41.622;2.276;2023-05-07T01:05:43;11;10;
62591;PMS5003;48659;41.622;2.276;2023-05-07T01:08:15;10;9;
62591;PMS5003;48659;41.622;2.276;2023-05-07T01:10:44;12;12;
62591;PMS5003;48659;41.622;2.276;2023-05-07T01:13:12;10;10;
62591;PMS5003;48659;41.622;2.276;2023-05-07T01:15:43;15;12;
62591;PMS5003;48659;41.622;2.276;2023-05-07T01:18:10;12;12;
62591;PMS5003;48659;41.622;2.276;2023-05-07T01:20:38;11;11;
62591;PMS5003;48659;41.622;2.276;2023-05-07T01:23:05;13;11;
62591;PMS5003;48659;41.622;2.276;2023-05-07T01:25:39;11;11;
62591;PMS5003;48659;41.622;2.276;2023-05-07T01:28:07;15;13;
62591;PMS5003;48659;41.622;2.276;2023-05-07T01:30:45;13;12;
62591;PMS5003;48659;41.622;2.276;2023-05-07T01:33:18;13;11;
62591;PMS5003;48659;41.622;2.276;2023-05-07T01:35:47;11;11;
62591;PMS5003;48659;41.622;2.276;2023-05-07T01:38:18;11;11;
62591;PMS5003;48659;41.622;2.276;2023-05-07T01:40:47;11;11;
62591;PMS5003;48659;41.622;2.276;2023-05-07T01:43:14;11;10;
62591;PMS5003;48659;41.622;2.276;2023-05-07T01:45:42;11;10;
62591;PMS5003;48659;41.622;2.276;2023-05-07T01:48:11;12;10;
62591;PMS5003;48659;41.622;2.276;2023-05-07T01:50:45;11;10;
62591;PMS5003;48659;41.622;2.276;2023-05-07T01:53:14;10;10;
62591;PMS5003;48659;41.622;2.276;2023-05-07T01:55:42;9;8;
62591;PMS5003;48659;41.622;2.276;2023-05-07T01:58:10;13;13;
62591;PMS5003;48659;41.622;2.276;2023-05-07T02:00:37;13;12;
62591;PMS5003;48659;41.622;2.276;2023-05-07T02:03:06;9;9;
62591;PMS5003;48659;41.622;2.276;2023-05-07T02:05:34;12;12;
62591;PMS5003;48659;41.622;2.276;2023-05-07T02:08:06;12;11;
62591;PMS5003;48659;41.622;2.276;2023-05-07T02:10:34;11;11;
62591;PMS5003;48659;41.622;2.276;2023-05-07T02:13:03;13;11;
62591;PMS5003;48659;41.622;2.276;2023-05-07T02:15:31;14;13;
62591;PMS5003;48659;41.622;2.276;2023-05-07T02:17:59;13;12;
62591;PMS5003;48659;41.622;2.276;2023-05-07T02:20:27;13;11;
62591;PMS5003;48659;41.622;2.276;2023-05-07T02:22:54;14;14;
62591;PMS5003;48659;41.622;2.276;2023-05-07T02:25:22;12;12;
62591;PMS5003;48659;41.622;2.276;2023-05-07T02:27:49;14;13;
62591;PMS5003;48659;41.622;2.276;2023-05-07T02:30:17;10;10;
62591;PMS5003;48659;41.622;2.276;2023-05-07T02:32:44;12;12;
62591;PMS5003;48659;41.622;2.276;2023-05-07T02:35:12;13;11;
62591;PMS5003;48659;41.622;2.276;2023-05-07T02:37:53;16;15;
62591;PMS5003;48659;41.622;2.276;2023-05-07T02:40:21;16;15;
62591;PMS5003;48659;41.622;2.276;2023-05-07T02:42:49;13;13;
62591;PMS5003;48659;41.622;2.276;2023-05-07T02:45:16;13;12;
62591;PMS5003;48659;41.622;2.276;2023-05-07T02:47:43;15;15;
62591;PMS5003;48659;41.622;2.276;2023-05-07T02:50:10;15;14;
62591;PMS5003;48659;41.622;2.276;2023-05-07T02:52:43;17;15;
62591;PMS5003;48659;41.622;2.276;2023-05-07T02:55:11;15;14;
62591;PMS5003;48659;41.622;2.276;2023-05-07T02:57:43;16;15;
62591;PMS5003;48659;41.622;2.276;2023-05-07T03:00:17;14;13;
62591;PMS5003;48659;41.622;2.276;2023-05-07T03:02:50;16;16;
62591;PMS5003;48659;41.622;2.276;2023-05-07T03:05:17;16;15;
62591;PMS5003;48659;41.622;2.276;2023-05-07T03:07:45;14;14;
62591;PMS5003;48659;41.622;2.276;2023-05-07T03:10:12;14;13;
62591;PMS5003;48659;41.622;2.276;2023-05-07T03:12:39;17;16;
62591;PMS5003;48659;41.622;2.276;2023-05-07T03:15:07;12;12;
62591;PMS5003;48659;41.622;2.276;2023-05-07T03:17:36;13;13;
62591;PMS5003;48659;41.622;2.276;2023-05-07T03:20:04;12;12;
62591;PMS5003;48659;41.622;2.276;2023-05-07T03:22:32;13;13;
62591;PMS5003;48659;41.622;2.276;2023-05-07T03:25:00;16;15;
62591;PMS5003;48659;41.622;2.276;2023-05-07T03:27:28;14;14;
62591;PMS5003;48659;41.622;2.276;2023-05-07T03:29:56;13;13;
62591;PMS5003;48659;41.622;2.276;2023-05-07T03:32:24;15;15;
62591;PMS5003;48659;41.622;2.276;2023-05-07T03:34:51;19;16;
62591;PMS5003;48659;41.622;2.276;2023-05-07T03:37:19;15;14;
62591;PMS5003;48659;41.622;2.276;2023-05-07T03:39:47;13;13;
62591;PMS5003;48659;41.622;2.276;2023-05-07T03:42:14;14;13;
62591;PMS5003;48659;41.622;2.276;2023-05-07T03:44:42;19;16;
62591;PMS5003;48659;41.622;2.276;2023-05-07T03:47:09;19;18;
62591;PMS5003;48659;41.622;2.276;2023-05-07T03:49:37;19;14;
62591;PMS5003;48659;41.622;2.276;2023-05-07T03:52:04;12;12;
62591;PMS5003;48659;41.622;2.276;2023-05-07T03:54:32;17;17;
62591;PMS5003;48659;41.622;2.276;2023-05-07T03:56:59;16;15;
62591;PMS5003;48659;41.622;2.276;2023-05-07T03:59:27;16;16;
62591;PMS5003;48659;41.622;2.276;2023-05-07T04:01:54;17;15;
62591;PMS5003;48659;41.622;2.276;2023-05-07T04:04:22;14;12;
62591;PMS5003;48659;41.622;2.276;2023-05-07T04:06:50;12;12;
62591;PMS5003;48659;41.622;2.276;2023-05-07T04:09:17;13;13;
62591;PMS5003;48659;41.622;2.276;2023-05-07T04:11:45;15;15;
62591;PMS5003;48659;41.622;2.276;2023-05-07T04:14:12;15;15;
62591;PMS5003;48659;41.622;2.276;2023-05-07T04:16:43;14;12;
62591;PMS5003;48659;41.622;2.276;2023-05-07T04:19:10;18;16;
62591;PMS5003;48659;41.622;2.276;2023-05-07T04:21:38;15;14;
62591;PMS5003;48659;41.622;2.276;2023-05-07T04:24:06;15;13;
62591;PMS5003;48659;41.622;2.276;2023-05-07T04:26:33;17;15;
62591;PMS5003;48659;41.622;2.276;2023-05-07T04:29:16;16;16;
62591;PMS5003;48659;41.622;2.276;2023-05-07T04:31:43;17;15;
62591;PMS5003;48659;41.622;2.276;2023-05-07T04:34:11;14;12;
62591;PMS5003;48659;41.622;2.276;2023-05-07T04:36:43;17;17;
62591;PMS5003;48659;41.622;2.276;2023-05-07T04:39:11;14;14;
62591;PMS5003;48659;41.622;2.276;2023-05-07T04:41:43;16;15;
62591;PMS5003;48659;41.622;2.276;2023-05-07T04:44:10;15;14;
62591;PMS5003;48659;41.622;2.276;2023-05-07T04:46:38;14;13;
62591;PMS5003;48659;41.622;2.276;2023-05-07T04:49:05;13;13;
62591;PMS5003;48659;41.622;2.276;2023-05-07T04:51:32;14;14;
62591;PMS5003;48659;41.622;2.276;2023-05-07T04:53:59;13;13;
62591;PMS5003;48659;41.622;2.276;2023-05-07T04:56:27;14;13;
62591;PMS5003;48659;41.622;2.276;2023-05-07T04:58:55;16;12;
62591;PMS5003;48659;41.622;2.276;2023-05-07T05:01:22;17;15;
62591;PMS5003;48659;41.622;2.276;2023-05-07T05:03:50;13;11;
62591;PMS5003;48659;41.622;2.276;2023-05-07T05:06:18;12;12;
62591;PMS5003;48659;41.622;2.276;2023-05-07T05:08:45;11;9;
62591;PMS5003;48659;41.622;2.276;2023-05-07T05:11:12;11;11;
62591;PMS5003;48659;41.622;2.276;2023-05-07T05:13:40;12;12;
62591;PMS5003;48659;41.622;2.276;2023-05-07T05:16:08;19;19;
62591;PMS5003;48659;41.622;2.276;2023-05-07T05:18:35;15;15;
62591;PMS5003;48659;41.622;2.276;2023-05-07T05:21:03;16;14;
62591;PMS5003;48659;41.622;2.276;2023-05-07T05:23:31;15;13;
62591;PMS5003;48659;41.622;2.276;2023-05-07T05:25:58;13;11;
62591;PMS5003;48659;41.622;2.276;2023-05-07T05:28:25;12;11;
62591;PMS5003;48659;41.622;2.276;2023-05-07T05:30:52;14;14;
62591;PMS5003;48659;41.622;2.276;2023-05-07T05:33:20;11;11;
62591;PMS5003;48659;41.622;2.276;2023-05-07T05:35:49;14;12;
62591;PMS5003;48659;41.622;2.276;2023-05-07T05:38:17;14;13;
62591;PMS5003;48659;41.622;2.276;2023-05-07T05:40:45;12;12;
62591;PMS5003;48659;41.622;2.276;2023-05-07T05:43:13;12;12;
62591;PMS5003;48659;41.622;2.276;2023-05-07T05:45:42;14;14;
62591;PMS5003;48659;41.622;2.276;2023-05-07T05:48:10;12;12;
62591;PMS5003;48659;41.622;2.276;2023-05-07T05:50:43;19;16;
62591;PMS5003;48659;41.622;2.276;2023-05-07T05:53:11;13;12;
62591;PMS5003;48659;41.622;2.276;2023-05-07T05:55:42;16;14;
62591;PMS5003;48659;41.622;2.276;2023-05-07T05:58:10;11;11;
62591;PMS5003;48659;41.622;2.276;2023-05-07T06:00:37;14;11;
62591;PMS5003;48659;41.622;2.276;2023-05-07T06:03:05;11;10;
62591;PMS5003;48659;41.622;2.276;2023-05-07T06:05:32;10;10;
62591;PMS5003;48659;41.622;2.276;2023-05-07T06:08:01;13;13;
62591;PMS5003;48659;41.622;2.276;2023-05-07T06:10:28;16;15;
62591;PMS5003;48659;41.622;2.276;2023-05-07T06:12:56;11;11;
62591;PMS5003;48659;41.622;2.276;2023-05-07T06:15:23;16;14;
62591;PMS5003;48659;41.622;2.276;2023-05-07T06:17:51;14;14;
62591;PMS5003;48659;41.622;2.276;2023-05-07T06:20:19;17;15;
62591;PMS5003;48659;41.622;2.276;2023-05-07T06:22:46;16;12;
62591;PMS5003;48659;41.622;2.276;2023-05-07T06:25:13;13;13;
62591;PMS5003;48659;41.622;2.276;2023-05-07T06:27:41;14;14;
62591;PMS5003;48659;41.622;2.276;2023-05-07T06:30:09;12;12;
62591;PMS5003;48659;41.622;2.276;2023-05-07T06:32:42;12;12;
62591;PMS5003;48659;41.622;2.276;2023-05-07T06:35:09;14;13;
62591;PMS5003;48659;41.622;2.276;2023-05-07T06:37:36;14;14;
62591;PMS5003;48659;41.622;2.276;2023-05-07T06:40:05;17;17;
62591;PMS5003;48659;41.622;2.276;2023-05-07T06:42:35;16;15;
62591;PMS5003;48659;41.622;2.276;2023-05-07T06:45:03;14;14;
62591;PMS5003;48659;41.622;2.276;2023-05-07T06:47:31;13;12;
62591;PMS5003;48659;41.622;2.276;2023-05-07T06:49:59;17;16;
62591;PMS5003;48659;41.622;2.276;2023-05-07T06:52:26;14;14;
62591;PMS5003;48659;41.622;2.276;2023-05-07T06:54:54;12;12;
62591;PMS5003;48659;41.622;2.276;2023-05-07T06:57:22;15;14;
62591;PMS5003;48659;41.622;2.276;2023-05-07T06:59:50;15;13;
62591;PMS5003;48659;41.622;2.276;2023-05-07T07:02:18;16;15;
62591;PMS5003;48659;41.622;2.276;2023-05-07T07:04:45;16;14;
62591;PMS5003;48659;41.622;2.276;2023-05-07T07:07:13;14;13;
62591;PMS5003;48659;41.622;2.276;2023-05-07T07:09:42;10;10;
62591;PMS5003;48659;41.622;2.276;2023-05-07T07:12:09;10;10;
62591;PMS5003;48659;41.622;2.276;2023-05-07T07:14:42;12;12;
62591;PMS5003;48659;41.622;2.276;2023-05-07T07:17:10;13;13;
62591;PMS5003;48659;41.622;2.276;2023-05-07T07:19:37;11;11;
62591;PMS5003;48659;41.622;2.276;2023-05-07T07:22:04;9;9;
62591;PMS5003;48659;41.622;2.276;2023-05-07T07:24:31;10;10;
62591;PMS5003;48659;41.622;2.276;2023-05-07T07:26:59;12;10;
62591;PMS5003;48659;41.622;2.276;2023-05-07T07:29:26;22;20;
62591;PMS5003;48659;41.622;2.276;2023-05-07T07:31:53;14;12;
62591;PMS5003;48659;41.622;2.276;2023-05-07T07:34:20;13;13;
62591;PMS5003;48659;41.622;2.276;2023-05-07T07:36:48;12;12;
62591;PMS5003;48659;41.622;2.276;2023-05-07T07:39:15;10;10;
62591;PMS5003;48659;41.622;2.276;2023-05-07T07:41:43;13;13;
62591;PMS5003;48659;41.622;2.276;2023-05-07T07:44:11;11;11;
62591;PMS5003;48659;41.622;2.276;2023-05-07T07:46:38;15;13;
62591;PMS5003;48659;41.622;2.276;2023-05-07T07:49:06;10;10;
62591;PMS5003;48659;41.622;2.276;2023-05-07T07:51:33;12;12;
62591;PMS5003;48659;41.622;2.276;2023-05-07T07:54:15;12;12;
62591;PMS5003;48659;41.622;2.276;2023-05-07T07:56:42;14;13;
62591;PMS5003;48659;41.622;2.276;2023-05-07T07:59:09;15;12;
62591;PMS5003;48659;41.622;2.276;2023-05-07T08:01:43;12;12;
62591;PMS5003;48659;41.622;2.276;2023-05-07T08:04:11;9;9;
62591;PMS5003;48659;41.622;2.276;2023-05-07T08:06:42;12;11;
62591;PMS5003;48659;41.622;2.276;2023-05-07T08:09:09;11;10;
62591;PMS5003;48659;41.622;2.276;2023-05-07T08:11:37;16;13;
62591;PMS5003;48659;41.622;2.276;2023-05-07T08:14:05;14;13;
62591;PMS5003;48659;41.622;2.276;2023-05-07T08:16:32;9;9;
62591;PMS5003;48659;41.622;2.276;2023-05-07T08:19:00;15;13;
62591;PMS5003;48659;41.622;2.276;2023-05-07T08:21:28;13;11;
62591;PMS5003;48659;41.622;2.276;2023-05-07T08:23:56;35;30;
62591;PMS5003;48659;41.622;2.276;2023-05-07T08:26:23;12;10;
62591;PMS5003;48659;41.622;2.276;2023-05-07T08:28:50;14;14;
62591;PMS5003;48659;41.622;2.276;2023-05-07T08:31:18;12;12;
62591;PMS5003;48659;41.622;2.276;2023-05-07T08:33:45;15;15;
62591;PMS5003;48659;41.622;2.276;2023-05-07T08:36:12;26;24;
62591;PMS5003;48659;41.622;2.276;2023-05-07T08:38:43;14;14;
62591;PMS5003;48659;41.622;2.276;2023-05-07T08:41:11;22;20;
62591;PMS5003;48659;41.622;2.276;2023-05-07T08:43:43;10;9;
62591;PMS5003;48659;41.622;2.276;2023-05-07T08:46:16;12;12;
62591;PMS5003;48659;41.622;2.276;2023-05-07T08:48:45;11;11;
62591;PMS5003;48659;41.622;2.276;2023-05-07T08:51:15;10;10;
62591;PMS5003;48659;41.622;2.276;2023-05-07T08:53:45;10;10;
62591;PMS5003;48659;41.622;2.276;2023-05-07T08:56:14;12;12;
62591;PMS5003;48659;41.622;2.276;2023-05-07T08:58:42;12;12;
62591;PMS5003;48659;41.622;2.276;2023-05-07T09:01:12;15;13;
62591;PMS5003;48659;41.622;2.276;2023-05-07T09:03:40;32;26;
62591;PMS5003;48659;41.622;2.276;2023-05-07T09:06:10;16;15;
62591;PMS5003;48659;41.622;2.276;2023-05-07T09:08:44;15;14;
62591;PMS5003;48659;41.622;2.276;2023-05-07T09:11:16;14;12;
62591;PMS5003;48659;41.622;2.276;2023-05-07T09:13:46;17;15;
62591;PMS5003;48659;41.622;2.276;2023-05-07T09:16:14;15;15;
62591;PMS5003;48659;41.622;2.276;2023-05-07T09:18:43;13;13;
62591;PMS5003;48659;41.622;2.276;2023-05-07T09:21:11;14;13;
62591;PMS5003;48659;41.622;2.276;2023-05-07T09:23:41;11;11;
62591;PMS5003;48659;41.622;2.276;2023-05-07T09:26:08;12;11;
62591;PMS5003;48659;41.622;2.276;2023-05-07T09:28:37;17;17;
62591;PMS5003;48659;41.622;2.276;2023-05-07T09:31:07;16;15;
62591;PMS5003;48659;41.622;2.276;2023-05-07T09:33:43;17;16;
62591;PMS5003;48659;41.622;2.276;2023-05-07T09:36:11;18;18;
62591;PMS5003;48659;41.622;2.276;2023-05-07T09:38:43;20;18;
62591;PMS5003;48659;41.622;2.276;2023-05-07T09:41:12;20;19;
62591;PMS5003;48659;41.622;2.276;2023-05-07T09:43:43;21;21;
62591;PMS5003;48659;41.622;2.276;2023-05-07T09:46:12;19;19;
62591;PMS5003;48659;41.622;2.276;2023-05-07T09:48:42;19;17;
62591;PMS5003;48659;41.622;2.276;2023-05-07T09:51:15;16;16;
62591;PMS5003;48659;41.622;2.276;2023-05-07T09:53:48;15;15;
62591;PMS5003;48659;41.622;2.276;2023-05-07T09:56:19;15;15;
62591;PMS5003;48659;41.622;2.276;2023-05-07T09:58:46;19;18;
62591;PMS5003;48659;41.622;2.276;2023-05-07T10:01:16;13;13;
62591;PMS5003;48659;41.622;2.276;2023-05-07T10:03:44;13;13;
62591;PMS5003;48659;41.622;2.276;2023-05-07T10:06:13;13;11;
62591;PMS5003;48659;41.622;2.276;2023-05-07T10:08:42;13;13;
62591;PMS5003;48659;41.622;2.276;2023-05-07T10:11:10;14;14;
62591;PMS5003;48659;41.622;2.276;2023-05-07T10:13:42;17;14;
62591;PMS5003;48659;41.622;2.276;2023-05-07T10:16:10;15;15;
62591;PMS5003;48659;41.622;2.276;2023-05-07T10:18:42;17;15;
62591;PMS5003;48659;41.622;2.276;2023-05-07T10:21:11;16;15;
62591;PMS5003;48659;41.622;2.276;2023-05-07T10:23:45;14;14;
62591;PMS5003;48659;41.622;2.276;2023-05-07T10:26:16;13;13;
62591;PMS5003;48659;41.622;2.276;2023-05-07T10:28:45;14;14;
62591;PMS5003;48659;41.622;2.276;2023-05-07T10:31:21;25;23;
62591;PMS5003;48659;41.622;2.276;2023-05-07T10:34:06;16;15;
62591;PMS5003;48659;41.622;2.276;2023-05-07T10:36:43;15;12;
62591;PMS5003;48659;41.622;2.276;2023-05-07T10:39:11;15;15;
62591;PMS5003;48659;41.622;2.276;2023-05-07T10:41:42;10;10;
62591;PMS5003;48659;41.622;2.276;2023-05-07T10:44:10;10;10;
62591;PMS5003;48659;41.622;2.276;2023-05-07T10:46:43;9;9;
62591;PMS5003;48659;41.622;2.276;2023-05-07T10:49:33;11;10;
62591;PMS5003;48659;41.622;2.276;2023-05-07T10:52:12;10;10;
62591;PMS5003;48659;41.622;2.276;2023-05-07T10:54:41;12;11;
62591;PMS5003;48659;41.622;2.276;2023-05-07T10:57:40;15;14;
62591;PMS5003;48659;41.622;2.276;2023-05-07T11:00:40;12;12;
62591;PMS5003;48659;41.622;2.276;2023-05-07T11:03:08;15;15;
62591;PMS5003;48659;41.622;2.276;2023-05-07T11:05:43;15;15;
62591;PMS5003;48659;41.622;2.276;2023-05-07T11:08:10;17;15;
62591;PMS5003;48659;41.622;2.276;2023-05-07T11:10:50;14;13;
62591;PMS5003;48659;41.622;2.276;2023-05-07T11:13:40;20;16;
62591;PMS5003;48659;41.622;2.276;2023-05-07T11:16:16;16;16;
62591;PMS5003;48659;41.622;2.276;2023-05-07T11:18:46;16;16;
62591;PMS5003;48659;41.622;2.276;2023-05-07T11:21:16;20;17;
62591;PMS5003;48659;41.622;2.276;2023-05-07T11:23:59;25;22;
62591;PMS5003;48659;41.622;2.276;2023-05-07T11:26:28;18;18;
62591;PMS5003;48659;41.622;2.276;2023-05-07T11:28:57;27;24;
62591;PMS5003;48659;41.622;2.276;2023-05-07T11:31:25;20;20;
62591;PMS5003;48659;41.622;2.276;2023-05-07T11:33:54;21;20;
62591;PMS5003;48659;41.622;2.276;2023-05-07T11:36:22;18;17;
62591;PMS5003;48659;41.622;2.276;2023-05-07T11:38:50;22;21;
62591;PMS5003;48659;41.622;2.276;2023-05-07T11:41:18;21;19;
62591;PMS5003;48659;41.622;2.276;2023-05-07T11:43:56;20;18;
62591;PMS5003;48659;41.622;2.276;2023-05-07T11:46:26;18;16;
62591;PMS5003;48659;41.622;2.276;2023-05-07T11:48:54;19;17;
62591;PMS5003;48659;41.622;2.276;2023-05-07T11:51:22;22;20;
62591;PMS5003;48659;41.622;2.276;2023-05-07T11:53:50;20;19;
62591;PMS5003;48659;41.622;2.276;2023-05-07T11:56:18;14;14;
62591;PMS5003;48659;41.622;2.276;2023-05-07T11:58:46;18;18;
62591;PMS5003;48659;41.622;2.276;2023-05-07T12:01:15;16;16;
62591;PMS5003;48659;41.622;2.276;2023-05-07T12:03:43;26;26;
62591;PMS5003;48659;41.622;2.276;2023-05-07T12:06:12;19;19;
62591;PMS5003;48659;41.622;2.276;2023-05-07T12:08:42;17;16;
62591;PMS5003;48659;41.622;2.276;2023-05-07T12:11:13;17;15;
62591;PMS5003;48659;41.622;2.276;2023-05-07T12:13:41;20;20;
62591;PMS5003;48659;41.622;2.276;2023-05-07T12:16:09;16;16;
62591;PMS5003;48659;41.622;2.276;2023-05-07T12:18:43;15;15;
62591;PMS5003;48659;41.622;2.276;2023-05-07T12:21:12;15;14;
62591;PMS5003;48659;41.622;2.276;2023-05-07T12:23:39;19;16;
62591;PMS5003;48659;41.622;2.276;2023-05-07T12:26:06;21;21;
62591;PMS5003;48659;41.622;2.276;2023-05-07T12:28:42;17;16;
62591;PMS5003;48659;41.622;2.276;2023-05-07T12:31:10;20;17;
62591;PMS5003;48659;41.622;2.276;2023-05-07T12:33:38;20;20;
62591;PMS5003;48659;41.622;2.276;2023-05-07T12:36:07;17;17;
62591;PMS5003;48659;41.622;2.276;2023-05-07T12:38:36;20;17;
62591;PMS5003;48659;41.622;2.276;2023-05-07T12:41:06;16;16;
62591;PMS5003;48659;41.622;2.276;2023-05-07T12:43:35;14;14;
62591;PMS5003;48659;41.622;2.276;2023-05-07T12:46:04;23;23;
62591;PMS5003;48659;41.622;2.276;2023-05-07T12:48:33;22;22;
62591;PMS5003;48659;41.622;2.276;2023-05-07T12:51:03;40;34;
62591;PMS5003;48659;41.622;2.276;2023-05-07T12:53:31;16;16;
62591;PMS5003;48659;41.622;2.276;2023-05-07T12:55:59;21;19;
62591;PMS5003;48659;41.622;2.276;2023-05-07T12:58:27;15;15;
62591;PMS5003;48659;41.622;2.276;2023-05-07T13:01:00;17;17;
62591;PMS5003;48659;41.622;2.276;2023-05-07T13:03:33;16;14;
62591;PMS5003;48659;41.622;2.276;2023-05-07T13:06:02;18;16;
62591;PMS5003;48659;41.622;2.276;2023-05-07T13:08:32;19;18;
62591;PMS5003;48659;41.622;2.276;2023-05-07T13:11:01;17;17;
62591;PMS5003;48659;41.622;2.276;2023-05-07T13:13:29;15;15;
62591;PMS5003;48659;41.622;2.276;2023-05-07T13:15:57;17;17;
62591;PMS5003;48659;41.622;2.276;2023-05-07T13:18:25;23;20;
62591;PMS5003;48659;41.622;2.276;2023-05-07T13:20:53;19;19;
62591;PMS5003;48659;41.622;2.276;2023-05-07T13:23:20;19;19;
62591;PMS5003;48659;41.622;2.276;2023-05-07T13:25:48;16;16;
62591;PMS5003;48659;41.622;2.276;2023-05-07T13:28:16;17;16;
62591;PMS5003;48659;41.622;2.276;2023-05-07T13:30:44;16;16;
62591;PMS5003;48659;41.622;2.276;2023-05-07T13:33:12;16;16;
62591;PMS5003;48659;41.622;2.276;2023-05-07T13:35:39;17;15;
62591;PMS5003;48659;41.622;2.276;2023-05-07T13:38:07;16;16;
62591;PMS5003;48659;41.622;2.276;2023-05-07T13:40:51;13;13;
62591;PMS5003;48659;41.622;2.276;2023-05-07T13:43:19;15;15;
62591;PMS5003;48659;41.622;2.276;2023-05-07T13:45:51;14;14;
62591;PMS5003;48659;41.622;2.276;2023-05-07T13:48:19;12;11;
62591;PMS5003;48659;41.622;2.276;2023-05-07T13:50:47;11;10;
62591;PMS5003;48659;41.622;2.276;2023-05-07T13:53:15;15;14;
62591;PMS5003;48659;41.622;2.276;2023-05-07T13:55:43;12;11;
62591;PMS5003;48659;41.622;2.276;2023-05-07T13:58:11;11;10;
62591;PMS5003;48659;41.622;2.276;2023-05-07T14:00:44;10;10;
62591;PMS5003;48659;41.622;2.276;2023-05-07T14:03:12;14;14;
62591;PMS5003;48659;41.622;2.276;2023-05-07T14:05:40;19;16;
62591;PMS5003;48659;41.622;2.276;2023-05-07T14:08:07;9;8;
62591;PMS5003;48659;41.622;2.276;2023-05-07T14:10:45;11;11;
62591;PMS5003;48659;41.622;2.276;2023-05-07T14:13:13;13;12;
62591;PMS5003;48659;41.622;2.276;2023-05-07T14:15:43;15;15;
62591;PMS5003;48659;41.622;2.276;2023-05-07T14:18:11;16;15;
62591;PMS5003;48659;41.622;2.276;2023-05-07T14:20:47;20;18;
62591;PMS5003;48659;41.622;2.276;2023-05-07T14:23:15;17;17;
62591;PMS5003;48659;41.622;2.276;2023-05-07T14:25:42;15;14;
62591;PMS5003;48659;41.622;2.276;2023-05-07T14:28:10;18;15;
62591;PMS5003;48659;41.622;2.276;2023-05-07T14:30:37;17;15;
62591;PMS5003;48659;41.622;2.276;2023-05-07T14:33:05;14;14;
62591;PMS5003;48659;41.622;2.276;2023-05-07T14:35:32;17;16;
62591;PMS5003;48659;41.622;2.276;2023-05-07T14:38:00;16;14;
62591;PMS5003;48659;41.622;2.276;2023-05-07T14:40:28;19;15;
62591;PMS5003;48659;41.622;2.276;2023-05-07T14:42:56;14;14;
62591;PMS5003;48659;41.622;2.276;2023-05-07T14:45:23;15;15;
62591;PMS5003;48659;41.622;2.276;2023-05-07T14:47:51;14;14;
62591;PMS5003;48659;41.622;2.276;2023-05-07T14:50:19;14;12;
62591;PMS5003;48659;41.622;2.276;2023-05-07T14:52:47;13;13;
62591;PMS5003;48659;41.622;2.276;2023-05-07T14:55:16;13;13;
62591;PMS5003;48659;41.622;2.276;2023-05-07T14:57:43;11;11;
62591;PMS5003;48659;41.622;2.276;2023-05-07T15:00:12;12;11;
62591;PMS5003;48659;41.622;2.276;2023-05-07T15:02:43;13;11;
62591;PMS5003;48659;41.622;2.276;2023-05-07T15:05:11;14;11;
62591;PMS5003;48659;41.622;2.276;2023-05-07T15:07:43;10;10;
62591;PMS5003;48659;41.622;2.276;2023-05-07T15:10:10;7;7;
62591;PMS5003;48659;41.622;2.276;2023-05-07T15:12:42;11;9;
62591;PMS5003;48659;41.622;2.276;2023-05-07T15:15:10;23;23;
62591;PMS5003;48659;41.622;2.276;2023-05-07T15:17:38;11;11;
62591;PMS5003;48659;41.622;2.276;2023-05-07T15:20:06;16;14;
62591;PMS5003;48659;41.622;2.276;2023-05-07T15:22:45;12;12;
62591;PMS5003;48659;41.622;2.276;2023-05-07T15:25:12;9;9;
62591;PMS5003;48659;41.622;2.276;2023-05-07T15:27:43;8;8;
62591;PMS5003;48659;41.622;2.276;2023-05-07T15:30:12;10;10;
62591;PMS5003;48659;41.622;2.276;2023-05-07T15:32:41;12;10;
62591;PMS5003;48659;41.622;2.276;2023-05-07T15:35:09;10;9;
62591;PMS5003;48659;41.622;2.276;2023-05-07T15:37:36;8;7;
62591;PMS5003;48659;41.622;2.276;2023-05-07T15:40:04;11;11;
62591;PMS5003;48659;41.622;2.276;2023-05-07T15:42:32;11;11;
62591;PMS5003;48659;41.622;2.276;2023-05-07T15:45:00;9;9;
62591;PMS5003;48659;41.622;2.276;2023-05-07T15:47:28;8;8;
62591;PMS5003;48659;41.622;2.276;2023-05-07T15:50:00;8;8;
62591;PMS5003;48659;41.622;2.276;2023-05-07T15:52:28;8;8;
62591;PMS5003;48659;41.622;2.276;2023-05-07T15:54:55;12;9;
62591;PMS5003;48659;41.622;2.276;2023-05-07T15:57:23;10;8;
62591;PMS5003;48659;41.622;2.276;2023-05-07T15:59:51;8;8;
62591;PMS5003;48659;41.622;2.276;2023-05-07T16:02:18;10;9;
62591;PMS5003;48659;41.622;2.276;2023-05-07T16:04:46;9;9;
62591;PMS5003;48659;41.622;2.276;2023-05-07T16:07:14;10;9;
62591;PMS5003;48659;41.622;2.276;2023-05-07T16:09:41;8;8;
62591;PMS5003;48659;41.622;2.276;2023-05-07T16:12:09;10;9;
62591;PMS5003;48659;41.622;2.276;2023-05-07T16:14:37;8;8;
62591;PMS5003;48659;41.622;2.276;2023-05-07T16:17:04;8;8;
62591;PMS5003;48659;41.622;2.276;2023-05-07T16:19:32;7;7;
62591;PMS5003;48659;41.622;2.276;2023-05-07T16:22:00;9;8;
62591;PMS5003;48659;41.622;2.276;2023-05-07T16:24:28;8;8;
62591;PMS5003;48659;41.622;2.276;2023-05-07T16:26:56;8;8;
62591;PMS5003;48659;41.622;2.276;2023-05-07T16:29:23;9;9;
62591;PMS5003;48659;41.622;2.276;2023-05-07T16:31:52;10;10;
62591;PMS5003;48659;41.622;2.276;2023-05-07T16:34:20;11;11;